createdAt,value
2023-05-03T00:00:40.189Z,79.18
2023-05-03T00:01:40.178Z,79.32
2023-05-03T00:02:40.623Z,79.22
2023-05-03T00:03:40.143Z,79.56
2023-05-03T00:04:40.224Z,79.87
2023-05-03T00:05:40.262Z,79.66
2023-05-03T00:06:40.160Z,79.36
2023-05-03T00:07:40.087Z,79.46
2023-05-03T00:08:40.085Z,79.66
2023-05-03T00:09:40.092Z,79.66
2023-05-03T00:10:40.054Z,79.46
2023-05-03T00:11:40.042Z,79.36
2023-05-03T00:12:40.046Z,79.36
2023-05-03T00:13:40.017Z,79.56
2023-05-03T00:14:40.043Z,79.36
2023-05-03T00:15:39.995Z,78.94
2023-05-03T00:16:40.027Z,78.84
2023-05-03T00:17:39.959Z,78.88
2023-05-03T00:18:39.963Z,79.29
2023-05-03T00:19:39.953Z,79.39
2023-05-03T00:20:39.924Z,79.39
2023-05-03T00:21:39.917Z,79.39
2023-05-03T00:22:39.914Z,79.08
2023-05-03T00:23:39.925Z,79.19
2023-05-03T00:24:39.897Z,79.49
2023-05-03T00:25:39.863Z,79.49
2023-05-03T00:26:39.845Z,79.60
2023-05-03T00:27:39.846Z,79.80
2023-05-03T00:28:39.828Z,79.80
2023-05-03T00:29:39.820Z,79.70
2023-05-03T00:30:39.797Z,79.91
2023-05-03T00:31:39.858Z,80.01
2023-05-03T00:32:39.821Z,79.70
2023-05-03T00:33:39.761Z,79.60
2023-05-03T00:34:39.766Z,79.60
2023-05-03T00:35:39.747Z,79.80
2023-05-03T00:36:39.721Z,79.39
2023-05-03T00:37:39.705Z,79.19
2023-05-03T00:38:39.701Z,79.39
2023-05-03T00:39:39.700Z,79.60
2023-05-03T00:40:39.660Z,79.53
2023-05-03T00:41:39.660Z,79.33
2023-05-03T00:42:39.651Z,79.74
2023-05-03T00:43:39.626Z,79.84
2023-05-03T00:44:39.631Z,79.94
2023-05-03T00:45:39.601Z,80.19
2023-05-03T00:46:39.637Z,80.40
2023-05-03T00:47:39.621Z,80.40
2023-05-03T00:48:39.572Z,80.50
2023-05-03T00:49:39.577Z,80.81
2023-05-03T00:50:39.551Z,80.81
2023-05-03T00:51:39.549Z,80.81
2023-05-03T00:52:39.512Z,80.91
2023-05-03T00:53:39.487Z,80.60
2023-05-03T00:54:39.519Z,79.63
2023-05-03T00:55:39.466Z,79.67
2023-05-03T00:56:50.459Z,79.57
2023-05-03T00:57:40.452Z,79.57
2023-05-03T00:58:39.436Z,79.98
2023-05-03T00:59:39.426Z,80.05
2023-05-03T01:00:39.401Z,80.15
2023-05-03T01:01:39.448Z,79.63
2023-05-03T01:02:39.443Z,78.91
2023-05-03T01:03:39.390Z,78.81
2023-05-03T01:04:40.528Z,78.95
2023-05-03T01:05:39.328Z,78.81
2023-05-03T01:06:39.343Z,79.26
2023-05-03T01:07:39.302Z,79.22
2023-05-03T01:08:39.312Z,79.05
2023-05-03T01:09:39.301Z,78.95
2023-05-03T01:10:39.277Z,78.74
2023-05-03T01:11:39.260Z,78.95
2023-05-03T01:12:39.237Z,79.05
2023-05-03T01:13:39.231Z,79.05
2023-05-03T01:14:39.329Z,78.95
2023-05-03T01:15:39.199Z,79.05
2023-05-03T01:16:39.315Z,78.85
2023-05-03T01:17:39.197Z,78.74
2023-05-03T01:18:39.169Z,78.85
2023-05-03T01:19:39.180Z,79.16
2023-05-03T01:20:39.136Z,79.36
2023-05-03T01:21:39.113Z,79.57
2023-05-03T01:22:39.110Z,79.77
2023-05-03T01:23:39.088Z,79.88
2023-05-03T01:24:39.093Z,79.88
2023-05-03T01:25:39.070Z,79.47
2023-05-03T01:26:39.055Z,79.26
2023-05-03T01:27:39.817Z,79.16
2023-05-03T01:28:39.028Z,79.26
2023-05-03T01:29:39.022Z,79.77
2023-05-03T01:30:39.009Z,79.88
2023-05-03T01:31:39.087Z,79.98
2023-05-03T01:32:39.028Z,79.98
2023-05-03T01:33:38.962Z,79.98
2023-05-03T01:34:38.996Z,79.88
2023-05-03T01:35:38.935Z,80.08
2023-05-03T01:36:38.924Z,79.98
2023-05-03T01:37:38.904Z,80.08
2023-05-03T01:38:38.908Z,80.29
2023-05-03T01:39:38.902Z,80.29
2023-05-03T01:40:38.869Z,80.29
2023-05-03T01:41:38.855Z,80.50
2023-05-03T01:42:38.843Z,80.54
2023-05-03T01:43:38.824Z,80.54
2023-05-03T01:44:38.837Z,80.54
2023-05-03T01:45:38.865Z,80.22
2023-05-03T01:46:38.792Z,79.91
2023-05-03T01:47:38.833Z,79.60
2023-05-03T01:48:38.761Z,79.60
2023-05-03T01:49:38.762Z,79.81
2023-05-03T01:50:38.746Z,79.81
2023-05-03T01:51:38.720Z,79.71
2023-05-03T01:52:38.711Z,79.60
2023-05-03T01:53:38.760Z,79.81
2023-05-03T01:54:38.698Z,80.02
2023-05-03T01:55:38.655Z,80.12
2023-05-03T01:56:38.657Z,80.36
2023-05-03T01:57:38.649Z,79.85
2023-05-03T01:58:38.630Z,79.74
2023-05-03T01:59:38.636Z,80.05
2023-05-03T02:00:38.620Z,80.36
2023-05-03T02:01:38.684Z,80.78
2023-05-03T02:02:38.661Z,80.99
2023-05-03T02:03:38.557Z,81.09
2023-05-03T02:04:38.622Z,80.78
2023-05-03T02:05:38.563Z,80.47
2023-05-03T02:06:38.577Z,80.40
2023-05-03T02:07:38.513Z,80.71
2023-05-03T02:08:38.507Z,80.82
2023-05-03T02:09:38.561Z,80.82
2023-05-03T02:10:38.486Z,80.51
2023-05-03T02:11:38.473Z,80.30
2023-05-03T02:12:38.451Z,80.61
2023-05-03T02:13:38.431Z,80.61
2023-05-03T02:14:38.440Z,80.40
2023-05-03T02:15:38.411Z,80.61
2023-05-03T02:16:38.410Z,80.92
2023-05-03T02:17:38.429Z,80.82
2023-05-03T02:18:38.357Z,80.82
2023-05-03T02:19:38.372Z,80.61
2023-05-03T02:20:38.347Z,80.40
2023-05-03T02:21:38.325Z,80.51
2023-05-03T02:22:38.394Z,80.51
2023-05-03T02:23:38.298Z,80.61
2023-05-03T02:24:38.314Z,80.40
2023-05-03T02:25:38.275Z,80.40
2023-05-03T02:26:38.270Z,80.40
2023-05-03T02:27:38.246Z,80.09
2023-05-03T02:28:38.228Z,80.30
2023-05-03T02:29:38.235Z,80.65
2023-05-03T02:30:38.244Z,80.54
2023-05-03T02:31:38.185Z,80.33
2023-05-03T02:32:38.211Z,80.65
2023-05-03T02:33:38.172Z,80.85
2023-05-03T02:34:38.158Z,80.96
2023-05-03T02:35:38.139Z,80.96
2023-05-03T02:36:38.140Z,80.99
2023-05-03T02:37:38.143Z,81.10
2023-05-03T02:38:38.123Z,81.20
2023-05-03T02:39:38.096Z,80.99
2023-05-03T02:40:38.076Z,81.30
2023-05-03T02:41:38.096Z,81.72
2023-05-03T02:42:38.043Z,81.93
2023-05-03T02:43:38.059Z,81.68
2023-05-03T02:44:38.134Z,81.93
2023-05-03T02:45:38.070Z,81.89
2023-05-03T02:46:38.047Z,81.68
2023-05-03T02:47:38.018Z,81.37
2023-05-03T02:48:37.967Z,81.27
2023-05-03T02:49:37.961Z,81.48
2023-05-03T02:50:37.942Z,81.27
2023-05-03T02:51:37.921Z,80.99
2023-05-03T02:52:37.908Z,81.20
2023-05-03T02:53:37.887Z,81.20
2023-05-03T02:54:37.891Z,80.89
2023-05-03T02:55:37.891Z,81.20
2023-05-03T02:56:37.868Z,81.51
2023-05-03T02:57:37.831Z,81.51
2023-05-03T02:58:37.825Z,81.51
2023-05-03T02:59:37.823Z,81.41
2023-05-03T03:00:37.793Z,81.41
2023-05-03T03:01:37.809Z,81.10
2023-05-03T03:02:37.856Z,80.79
2023-05-03T03:03:37.948Z,81.30
2023-05-03T03:04:37.765Z,81.56
2023-05-03T03:05:37.723Z,81.66
2023-05-03T03:06:37.825Z,81.76
2023-05-03T03:07:37.703Z,82.07
2023-05-03T03:08:37.694Z,81.97
2023-05-03T03:09:37.692Z,82.07
2023-05-03T03:10:37.676Z,82.28
2023-05-03T03:11:37.661Z,82.18
2023-05-03T03:12:37.640Z,82.28
2023-05-03T03:13:37.647Z,82.28
2023-05-03T03:14:37.634Z,82.28
2023-05-03T03:15:37.629Z,82.49
2023-05-03T03:16:37.766Z,82.39
2023-05-03T03:17:37.613Z,82.18
2023-05-03T03:18:37.592Z,81.87
2023-05-03T03:19:37.569Z,81.66
2023-05-03T03:20:37.556Z,81.80
2023-05-03T03:21:37.519Z,82.11
2023-05-03T03:22:37.506Z,82.11
2023-05-03T03:24:29.680Z,82.53
2023-05-03T03:25:29.650Z,82.42
2023-05-03T03:26:29.630Z,82.32
2023-05-03T03:27:29.607Z,82.32
2023-05-03T03:28:29.615Z,82.32
2023-05-03T03:29:29.603Z,82.39
2023-05-03T03:30:29.586Z,82.28
2023-05-03T03:31:29.633Z,82.39
2023-05-03T03:32:29.550Z,82.39
2023-05-03T03:33:29.534Z,82.18
2023-05-03T03:34:29.518Z,82.18
2023-05-03T03:35:29.533Z,81.45
2023-05-03T03:36:29.504Z,80.93
2023-05-03T03:37:29.477Z,81.28
2023-05-03T03:38:29.473Z,81.18
2023-05-03T03:39:29.440Z,81.70
2023-05-03T03:40:29.449Z,81.80
2023-05-03T03:41:29.428Z,82.11
2023-05-03T03:42:29.426Z,82.01
2023-05-03T03:43:29.415Z,82.11
2023-05-03T03:44:29.397Z,82.53
2023-05-03T03:45:29.389Z,82.53
2023-05-03T03:46:29.384Z,82.46
2023-05-03T03:47:29.385Z,82.46
2023-05-03T03:48:29.340Z,82.84
2023-05-03T03:49:29.311Z,82.87
2023-05-03T03:50:29.344Z,82.73
2023-05-03T03:51:29.282Z,82.56
2023-05-03T03:52:29.278Z,82.46
2023-05-03T03:53:29.263Z,82.56
2023-05-03T03:54:29.260Z,82.35
2023-05-03T03:55:29.278Z,82.46
2023-05-03T03:56:29.227Z,82.25
2023-05-03T03:57:29.211Z,82.46
2023-05-03T03:58:29.208Z,82.67
2023-05-03T03:59:29.196Z,82.67
2023-05-03T04:00:29.192Z,82.46
2023-05-03T04:01:29.154Z,82.56
2023-05-03T04:02:29.246Z,82.56
2023-05-03T04:03:29.164Z,82.53
2023-05-03T04:04:29.211Z,82.15
2023-05-03T04:05:29.123Z,82.15
2023-05-03T04:06:29.180Z,82.35
2023-05-03T04:07:29.072Z,82.56
2023-05-03T04:08:29.071Z,82.46
2023-05-03T04:09:29.060Z,82.56
2023-05-03T04:10:29.053Z,82.56
2023-05-03T04:11:29.034Z,82.46
2023-05-03T04:12:29.021Z,82.35
2023-05-03T04:13:29.000Z,82.46
2023-05-03T04:14:28.988Z,82.35
2023-05-03T04:15:28.988Z,82.35
2023-05-03T04:16:28.983Z,82.77
2023-05-03T04:17:28.970Z,83.18
2023-05-03T04:18:28.935Z,83.50
2023-05-03T04:19:28.908Z,83.70
2023-05-03T04:20:28.951Z,83.70
2023-05-03T04:21:28.898Z,83.39
2023-05-03T04:22:28.887Z,83.29
2023-05-03T04:23:28.884Z,82.98
2023-05-03T04:24:28.852Z,83.08
2023-05-03T04:25:28.858Z,83.08
2023-05-03T04:26:32.081Z,82.87
2023-05-03T04:27:28.807Z,83.08
2023-05-03T04:28:28.797Z,83.08
2023-05-03T04:29:28.806Z,82.87
2023-05-03T04:30:28.838Z,82.94
2023-05-03T04:31:28.925Z,83.04
2023-05-03T04:32:28.775Z,82.98
2023-05-03T04:33:28.723Z,82.98
2023-05-03T04:34:28.722Z,82.77
2023-05-03T04:35:28.741Z,83.04
2023-05-03T04:36:28.689Z,83.25
2023-05-03T04:37:28.688Z,83.04
2023-05-03T04:38:28.732Z,83.04
2023-05-03T04:39:28.647Z,82.84
2023-05-03T04:40:28.660Z,82.53
2023-05-03T04:41:28.610Z,82.18
2023-05-03T04:42:28.620Z,81.97
2023-05-03T04:43:28.610Z,81.66
2023-05-03T04:44:28.600Z,81.56
2023-05-03T04:45:28.583Z,81.35
2023-05-03T04:46:28.652Z,81.45
2023-05-03T04:47:28.547Z,81.56
2023-05-03T04:48:28.539Z,81.66
2023-05-03T04:49:28.530Z,81.76
2023-05-03T04:50:28.506Z,81.87
2023-05-03T04:51:28.608Z,87.43
2023-05-03T04:52:28.481Z,94.16
2023-05-03T04:53:28.457Z,91.26
2023-05-03T04:54:28.468Z,85.01
2023-05-03T04:55:28.438Z,81.09
2023-05-03T04:56:28.456Z,76.97
2023-05-03T04:57:28.406Z,73.61
2023-05-03T04:58:28.404Z,71.42
2023-05-03T04:59:28.386Z,69.23
2023-05-03T05:00:28.392Z,67.86
2023-05-03T05:01:28.452Z,67.56
2023-05-03T05:02:28.490Z,67.35
2023-05-03T05:03:28.527Z,67.83
2023-05-03T05:04:28.432Z,67.94
2023-05-03T05:05:28.907Z,67.73
2023-05-03T05:06:28.352Z,66.78
2023-05-03T05:07:28.274Z,67.40
2023-05-03T05:08:28.487Z,67.40
2023-05-03T05:09:28.258Z,66.27
2023-05-03T05:10:28.255Z,67.29
2023-05-03T05:11:28.235Z,66.88
2023-05-03T05:12:28.202Z,66.34
2023-05-03T05:13:28.198Z,64.42
2023-05-03T05:14:28.232Z,65.65
2023-05-03T05:15:28.178Z,66.27
2023-05-03T05:16:28.229Z,65.96
2023-05-03T05:17:28.224Z,61.92
2023-05-03T05:18:28.156Z,66.16
2023-05-03T05:19:28.111Z,64.95
2023-05-03T05:20:28.126Z,63.91
2023-05-03T05:21:28.096Z,65.52
2023-05-03T05:22:28.074Z,67.15
2023-05-03T05:23:28.119Z,68.96
2023-05-03T05:24:28.082Z,70.23
2023-05-03T05:25:28.049Z,71.44
2023-05-03T05:26:28.023Z,72.50
2023-05-03T05:27:28.011Z,73.88
2023-05-03T05:28:28.001Z,74.95
2023-05-03T05:29:27.981Z,75.57
2023-05-03T05:30:27.983Z,76.43
2023-05-03T05:31:27.956Z,77.19
2023-05-03T05:32:27.938Z,77.70
2023-05-03T05:33:27.966Z,78.33
2023-05-03T05:34:27.916Z,78.95
2023-05-03T05:35:27.900Z,79.16
2023-05-03T05:36:27.909Z,85.60
2023-05-03T05:37:27.882Z,83.17
2023-05-03T05:38:27.860Z,76.46
2023-05-03T05:39:27.857Z,74.63
2023-05-03T05:40:27.833Z,74.43
2023-05-03T05:41:27.859Z,74.88
2023-05-03T05:42:27.817Z,75.29
2023-05-03T05:43:27.804Z,76.15
2023-05-03T05:44:27.774Z,76.87
2023-05-03T05:45:27.776Z,77.33
2023-05-03T05:46:27.819Z,77.84
2023-05-03T05:47:27.874Z,77.94
2023-05-03T05:48:27.733Z,77.94
2023-05-03T05:49:27.723Z,78.36
2023-05-03T05:50:27.717Z,78.70
2023-05-03T05:51:27.712Z,79.02
2023-05-03T05:52:27.684Z,79.53
2023-05-03T05:53:27.678Z,79.74
2023-05-03T05:54:28.698Z,79.74
2023-05-03T05:55:27.650Z,79.74
2023-05-03T05:56:27.647Z,79.70
2023-05-03T05:57:27.610Z,79.70
2023-05-03T05:58:27.623Z,80.01
2023-05-03T05:59:27.595Z,79.70
2023-05-03T06:00:27.573Z,79.39
2023-05-03T06:01:27.591Z,79.49
2023-05-03T06:02:27.653Z,79.56
2023-05-03T06:03:27.598Z,79.46
2023-05-03T06:04:27.538Z,79.56
2023-05-03T06:05:27.590Z,79.56
2023-05-03T06:06:27.568Z,79.56
2023-05-03T06:07:27.486Z,79.36
2023-05-03T06:08:27.475Z,79.25
2023-05-03T06:09:27.475Z,79.15
2023-05-03T06:10:27.451Z,79.46
2023-05-03T06:11:27.463Z,79.46
2023-05-03T06:12:27.425Z,79.46
2023-05-03T06:13:27.412Z,79.25
2023-05-03T06:14:27.397Z,79.01
2023-05-03T06:15:27.390Z,78.91
2023-05-03T06:16:27.401Z,78.39
2023-05-03T06:17:27.424Z,78.39
2023-05-03T06:18:27.342Z,78.59
2023-05-03T06:19:27.335Z,78.91
2023-05-03T06:20:27.314Z,78.80
2023-05-03T06:21:27.320Z,78.28
2023-05-03T06:22:27.289Z,77.73
2023-05-03T06:23:27.276Z,77.73
2023-05-03T06:24:27.276Z,77.73
2023-05-03T06:25:27.250Z,77.53
2023-05-03T06:26:27.271Z,77.32
2023-05-03T06:27:27.235Z,77.18
2023-05-03T06:28:27.214Z,76.77
2023-05-03T06:29:27.213Z,76.67
2023-05-03T06:30:27.465Z,76.87
2023-05-03T06:31:27.289Z,76.56
2023-05-03T06:32:27.168Z,76.67
2023-05-03T06:33:27.139Z,76.67
2023-05-03T06:34:27.140Z,76.77
2023-05-03T06:35:27.136Z,76.77
2023-05-03T06:36:27.136Z,76.73
2023-05-03T06:37:27.113Z,77.04
2023-05-03T06:38:27.067Z,77.04
2023-05-03T06:39:27.086Z,77.56
2023-05-03T06:40:27.195Z,77.56
2023-05-03T06:41:27.072Z,77.11
2023-05-03T06:42:27.023Z,77.01
2023-05-03T06:43:27.021Z,76.49
2023-05-03T06:44:26.999Z,76.35
2023-05-03T06:45:26.987Z,76.87
2023-05-03T06:46:27.048Z,76.56
2023-05-03T06:47:26.974Z,76.04
2023-05-03T06:48:27.022Z,75.60
2023-05-03T06:49:26.935Z,75.29
2023-05-03T06:50:27.002Z,74.67
2023-05-03T06:51:26.928Z,74.46
2023-05-03T06:52:26.904Z,74.43
2023-05-03T06:53:26.884Z,74.63
2023-05-03T06:54:26.886Z,74.43
2023-05-03T06:55:26.897Z,73.71
2023-05-03T06:56:26.855Z,73.57
2023-05-03T06:57:28.599Z,73.78
2023-05-03T06:58:26.810Z,73.78
2023-05-03T06:59:26.805Z,73.36
2023-05-03T07:00:26.911Z,73.57
2023-05-03T07:01:26.848Z,73.64
2023-05-03T07:02:26.950Z,73.23
2023-05-03T07:03:26.909Z,73.02
2023-05-03T07:04:26.738Z,73.33
2023-05-03T07:05:26.720Z,71.96
2023-05-03T07:06:26.768Z,70.83
2023-05-03T07:07:26.730Z,70.83
2023-05-03T07:08:26.730Z,71.75
2023-05-03T07:10:26.741Z,72.17
2023-05-03T07:11:26.635Z,72.06
2023-05-03T07:12:26.663Z,71.51
2023-05-03T07:13:26.620Z,69.26
2023-05-03T07:14:26.593Z,68.54
2023-05-03T07:15:26.590Z,68.85
2023-05-03T07:16:26.629Z,69.12
2023-05-03T07:17:26.610Z,68.71
2023-05-03T07:18:26.569Z,68.81
2023-05-03T07:19:26.526Z,69.02
2023-05-03T07:20:26.520Z,68.48
2023-05-03T07:21:26.509Z,67.65
2023-05-03T07:22:26.506Z,66.93
2023-05-03T07:23:26.476Z,66.93
2023-05-03T07:24:26.470Z,66.52
2023-05-03T07:25:26.479Z,66.52
2023-05-03T07:26:26.437Z,65.88
2023-05-03T07:27:26.452Z,66.08
2023-05-03T07:28:26.412Z,65.98
2023-05-03T07:29:26.391Z,65.77
2023-05-03T07:30:26.382Z,66.28
2023-05-03T07:31:26.367Z,65.26
2023-05-03T07:32:26.417Z,65.26
2023-05-03T07:33:26.397Z,65.16
2023-05-03T07:34:26.330Z,64.95
2023-05-03T07:35:26.311Z,65.54
2023-05-03T07:36:26.291Z,64.72
2023-05-03T07:37:26.307Z,65.84
2023-05-03T07:38:26.261Z,65.54
2023-05-03T07:39:26.261Z,65.23
2023-05-03T07:40:26.253Z,65.74
2023-05-03T07:41:26.231Z,65.51
2023-05-03T07:42:26.248Z,64.28
2023-05-03T07:43:26.236Z,65.41
2023-05-03T07:44:26.182Z,65.00
2023-05-03T07:45:26.184Z,63.56
2023-05-03T07:46:26.260Z,64.17
2023-05-03T07:47:26.218Z,64.38
2023-05-03T07:48:26.127Z,65.37
2023-05-03T07:49:26.143Z,65.07
2023-05-03T07:50:26.107Z,65.89
2023-05-03T07:51:26.098Z,65.07
2023-05-03T07:52:26.085Z,65.37
2023-05-03T07:53:26.057Z,63.64
2023-05-03T07:54:26.060Z,63.43
2023-05-03T07:55:26.040Z,63.12
2023-05-03T07:56:26.037Z,62.58
2023-05-03T07:57:26.030Z,62.48
2023-05-03T07:58:38.992Z,63.20
2023-05-03T07:59:26.975Z,63.40
2023-05-03T08:00:25.988Z,62.99
2023-05-03T08:01:25.967Z,62.58
2023-05-03T08:02:26.059Z,62.68
2023-05-03T08:03:26.107Z,62.27
2023-05-03T08:04:26.194Z,62.58
2023-05-03T08:05:25.966Z,62.48
2023-05-03T08:06:26.002Z,62.48
2023-05-03T08:07:25.892Z,62.88
2023-05-03T08:08:25.856Z,62.37
2023-05-03T08:09:25.844Z,62.88
2023-05-03T08:10:25.823Z,64.70
2023-05-03T08:11:25.832Z,63.88
2023-05-03T08:12:25.828Z,63.57
2023-05-03T08:13:25.808Z,63.88
2023-05-03T08:14:25.807Z,61.32
2023-05-03T08:15:25.771Z,61.52
2023-05-03T08:16:25.863Z,62.14
2023-05-03T08:17:25.769Z,61.73
2023-05-03T08:18:25.730Z,61.52
2023-05-03T08:19:25.714Z,61.63
2023-05-03T08:20:25.727Z,62.14
2023-05-03T08:21:25.691Z,61.50
2023-05-03T08:22:25.666Z,62.32
2023-05-03T08:23:25.662Z,62.42
2023-05-03T08:24:25.651Z,63.24
2023-05-03T08:25:25.650Z,63.03
2023-05-03T08:26:25.612Z,62.59
2023-05-03T08:27:25.612Z,62.59
2023-05-03T08:28:25.605Z,62.80
2023-05-03T08:29:27.515Z,61.98
2023-05-03T08:30:25.637Z,62.90
2023-05-03T08:31:25.577Z,63.00
2023-05-03T08:32:25.572Z,61.47
2023-05-03T08:33:25.521Z,60.55
2023-05-03T08:34:25.531Z,60.85
2023-05-03T08:35:25.518Z,61.16
2023-05-03T08:36:25.484Z,59.70
2023-05-03T08:37:25.482Z,61.24
2023-05-03T08:38:25.520Z,60.83
2023-05-03T08:39:25.463Z,60.01
2023-05-03T08:40:25.432Z,60.52
2023-05-03T08:41:25.446Z,60.31
2023-05-03T08:42:25.883Z,59.19
2023-05-03T08:43:25.392Z,59.57
2023-05-03T08:44:25.391Z,59.06
2023-05-03T08:45:25.371Z,59.16
2023-05-03T08:46:25.364Z,59.47
2023-05-03T08:47:25.357Z,59.37
2023-05-03T08:48:25.318Z,59.37
2023-05-03T08:49:25.326Z,58.96
2023-05-03T08:50:25.309Z,59.06
2023-05-03T08:51:25.292Z,60.39
2023-05-03T08:52:25.263Z,59.85
2023-05-03T08:53:25.281Z,58.52
2023-05-03T08:54:25.253Z,58.32
2023-05-03T08:55:25.236Z,58.83
2023-05-03T08:56:25.215Z,58.42
2023-05-03T08:57:25.215Z,60.16
2023-05-03T08:58:25.211Z,59.85
2023-05-03T08:59:25.185Z,58.73
2023-05-03T09:00:25.172Z,58.62
2023-05-03T09:01:25.170Z,58.83
2023-05-03T09:02:25.247Z,58.52
2023-05-03T09:03:25.248Z,60.05
2023-05-03T09:04:25.230Z,58.80
2023-05-03T09:05:25.096Z,58.39
2023-05-03T09:06:25.144Z,57.29
2023-05-03T09:07:25.105Z,57.29
2023-05-03T09:08:25.071Z,58.70
2023-05-03T09:09:25.045Z,59.52
2023-05-03T09:10:25.050Z,56.56
2023-05-03T09:11:25.013Z,59.00
2023-05-03T09:12:25.016Z,59.52
2023-05-03T09:13:24.982Z,58.78
2023-05-03T09:14:24.974Z,57.75
2023-05-03T09:15:24.976Z,57.75
2023-05-03T09:16:24.979Z,57.04
2023-05-03T09:17:24.943Z,56.63
2023-05-03T09:18:24.921Z,56.73
2023-05-03T09:19:24.911Z,56.50
2023-05-03T09:20:24.904Z,56.10
2023-05-03T09:21:24.910Z,55.48
2023-05-03T09:22:24.881Z,55.07
2023-05-03T09:23:24.855Z,55.58
2023-05-03T09:24:31.925Z,56.10
2023-05-03T09:25:24.823Z,54.97
2023-05-03T09:26:24.836Z,54.77
2023-05-03T09:27:24.799Z,56.60
2023-05-03T09:28:24.782Z,56.71
2023-05-03T09:29:24.776Z,54.57
2023-05-03T09:30:24.746Z,55.89
2023-05-03T09:31:24.806Z,56.81
2023-05-03T09:32:24.780Z,56.37
2023-05-03T09:33:24.712Z,57.39
2023-05-03T09:34:24.733Z,56.78
2023-05-03T09:35:24.702Z,56.37
2023-05-03T09:36:24.692Z,56.15
2023-05-03T09:37:24.668Z,57.57
2023-05-03T09:38:24.668Z,57.17
2023-05-03T09:39:24.640Z,55.63
2023-05-03T09:40:24.649Z,56.35
2023-05-03T09:41:24.621Z,55.53
2023-05-03T09:42:24.597Z,55.22
2023-05-03T09:43:24.610Z,56.15
2023-05-03T09:44:24.601Z,54.82
2023-05-03T09:45:24.588Z,56.55
2023-05-03T09:46:24.674Z,56.63
2023-05-03T09:47:24.588Z,55.91
2023-05-03T09:48:24.514Z,56.52
2023-05-03T09:49:24.516Z,55.10
2023-05-03T09:50:24.504Z,55.81
2023-05-03T09:51:24.468Z,55.30
2023-05-03T09:52:24.467Z,54.28
2023-05-03T09:53:24.471Z,54.49
2023-05-03T09:54:25.664Z,54.49
2023-05-03T09:55:24.447Z,55.10
2023-05-03T09:56:24.413Z,55.30
2023-05-03T09:57:24.415Z,54.97
2023-05-03T09:58:24.385Z,55.38
2023-05-03T09:59:24.392Z,54.87
2023-05-03T10:00:24.381Z,55.38
2023-05-03T10:01:24.406Z,54.57
2023-05-03T10:02:24.372Z,53.55
2023-05-03T10:03:24.430Z,57.01
2023-05-03T10:04:24.385Z,54.97
2023-05-03T10:05:24.302Z,55.89
2023-05-03T10:06:24.308Z,54.87
2023-05-03T10:07:24.262Z,55.48
2023-05-03T10:08:24.261Z,55.76
2023-05-03T10:09:24.261Z,54.85
2023-05-03T10:10:24.230Z,53.83
2023-05-03T10:11:24.214Z,53.83
2023-05-03T10:12:24.209Z,53.63
2023-05-03T10:13:24.249Z,54.64
2023-05-03T10:14:24.203Z,54.82
2023-05-03T10:15:24.172Z,53.50
2023-05-03T10:16:24.245Z,52.58
2023-05-03T10:17:35.333Z,53.59
2023-05-03T10:18:25.201Z,49.25
2023-05-03T10:19:24.100Z,50.06
2023-05-03T10:20:24.091Z,50.16
2023-05-03T10:21:24.073Z,49.86
2023-05-03T10:22:24.070Z,51.28
2023-05-03T10:23:24.085Z,52.50
2023-05-03T10:24:24.089Z,54.44
2023-05-03T10:25:24.018Z,53.72
2023-05-03T10:26:24.009Z,54.11
2023-05-03T10:27:24.010Z,54.31
2023-05-03T10:28:24.016Z,54.61
2023-05-03T10:29:23.963Z,52.58
2023-05-03T10:30:23.963Z,52.68
2023-05-03T10:31:23.955Z,52.28
2023-05-03T10:32:23.963Z,52.15
2023-05-03T10:33:23.927Z,53.57
2023-05-03T10:34:23.908Z,55.00
2023-05-03T10:35:23.881Z,54.39
2023-05-03T10:36:23.874Z,53.45
2023-05-03T10:37:23.867Z,52.84
2023-05-03T10:38:23.844Z,52.23
2023-05-03T10:39:23.843Z,54.77
2023-05-03T10:40:23.859Z,52.51
2023-05-03T10:41:23.796Z,52.81
2023-05-03T10:42:23.806Z,52.91
2023-05-03T10:43:23.774Z,52.61
2023-05-03T10:44:23.757Z,53.12
2023-05-03T10:45:23.777Z,52.89
2023-05-03T10:46:23.750Z,51.26
2023-05-03T10:47:23.770Z,50.88
2023-05-03T10:48:23.703Z,49.87
2023-05-03T10:49:23.701Z,50.17
2023-05-03T10:50:23.711Z,48.95
2023-05-03T10:51:23.676Z,48.14
2023-05-03T10:52:23.672Z,48.44
2023-05-03T10:53:23.634Z,49.87
2023-05-03T10:54:23.620Z,49.36
2023-05-03T10:55:23.609Z,49.16
2023-05-03T10:56:23.609Z,50.58
2023-05-03T10:57:23.594Z,49.56
2023-05-03T10:58:23.596Z,51.09
2023-05-03T10:59:23.550Z,50.58
2023-05-03T11:00:23.568Z,48.55
2023-05-03T11:01:23.614Z,49.76
2023-05-03T11:02:23.579Z,51.39
2023-05-03T11:03:23.510Z,51.26
2023-05-03T11:04:23.598Z,52.69
2023-05-03T11:05:23.470Z,51.57
2023-05-03T11:06:23.528Z,51.67
2023-05-03T11:07:23.462Z,50.63
2023-05-03T11:08:23.428Z,50.33
2023-05-03T11:09:23.428Z,50.12
2023-05-03T11:10:23.411Z,50.43
2023-05-03T11:11:23.413Z,49.01
2023-05-03T11:12:23.383Z,47.38
2023-05-03T11:13:23.404Z,48.19
2023-05-03T11:14:23.349Z,49.31
2023-05-03T11:15:23.360Z,49.92
2023-05-03T11:16:23.349Z,48.99
2023-05-03T11:17:23.302Z,50.51
2023-05-03T11:18:23.304Z,51.01
2023-05-03T11:19:23.307Z,47.67
2023-05-03T11:20:23.292Z,49.39
2023-05-03T11:21:23.255Z,47.36
2023-05-03T11:22:23.245Z,48.68
2023-05-03T11:23:23.234Z,47.36
2023-05-03T11:24:23.236Z,47.16
2023-05-03T11:25:23.233Z,47.77
2023-05-03T11:26:23.194Z,47.87
2023-05-03T11:27:23.191Z,50.31
2023-05-03T11:28:23.186Z,49.77
2023-05-03T11:29:23.150Z,49.47
2023-05-03T11:30:23.160Z,50.08
2023-05-03T11:31:23.298Z,47.14
2023-05-03T11:32:23.173Z,46.43
2023-05-03T11:33:23.089Z,46.94
2023-05-03T11:34:23.121Z,48.33
2023-05-03T11:35:23.105Z,48.94
2023-05-03T11:36:23.056Z,48.83
2023-05-03T11:37:23.040Z,48.33
2023-05-03T11:38:23.029Z,49.11
2023-05-03T11:39:23.039Z,50.23
2023-05-03T11:40:23.022Z,49.73
2023-05-03T11:41:22.988Z,47.19
2023-05-03T11:42:22.971Z,46.79
2023-05-03T11:43:22.966Z,48.21
2023-05-03T11:44:22.982Z,47.70
2023-05-03T11:45:23.313Z,46.89
2023-05-03T11:46:23.004Z,44.36
2023-05-03T11:47:22.926Z,47.30
2023-05-03T11:48:22.941Z,45.78
2023-05-03T11:49:22.933Z,46.89
2023-05-03T11:50:22.871Z,46.59
2023-05-03T11:51:22.849Z,47.39
2023-05-03T11:52:22.849Z,46.69
2023-05-03T11:53:22.848Z,47.50
2023-05-03T11:54:26.315Z,47.58
2023-05-03T11:55:22.825Z,44.95
2023-05-03T11:56:22.831Z,46.06
2023-05-03T11:57:22.783Z,45.96
2023-05-03T11:58:22.794Z,47.38
2023-05-03T11:59:22.774Z,47.07
2023-05-03T12:00:22.724Z,47.78
2023-05-03T12:01:22.767Z,46.56
2023-05-03T12:02:22.769Z,45.83
2023-05-03T12:03:24.776Z,47.15
2023-05-03T12:04:23.986Z,46.64
2023-05-03T12:05:23.291Z,47.75
2023-05-03T12:06:23.673Z,48.06
2023-05-03T12:07:23.963Z,49.17
2023-05-03T12:08:24.972Z,48.34
2023-05-03T12:09:24.044Z,46.22
2023-05-03T12:10:25.944Z,45.81
2023-05-03T12:11:25.756Z,44.09
2023-05-03T12:12:26.917Z,45.51
2023-05-03T12:13:25.146Z,47.33
2023-05-03T12:14:22.742Z,44.29
2023-05-03T12:15:23.215Z,44.49
2023-05-03T12:16:22.698Z,45.91
2023-05-03T12:17:22.785Z,46.83
2023-05-03T12:18:22.719Z,45.79
2023-05-03T12:22:26.474Z,46.68
2023-05-03T12:23:22.757Z,46.28
2023-05-03T12:24:24.350Z,47.89
2023-05-03T12:25:25.718Z,46.17
2023-05-03T12:26:22.486Z,46.45
2023-05-03T12:27:23.944Z,46.66
2023-05-03T12:28:22.688Z,45.65
2023-05-03T12:29:23.836Z,46.45
2023-05-03T12:30:23.508Z,45.93
2023-05-03T12:31:23.009Z,46.73
2023-05-03T12:32:23.251Z,47.44
2023-05-03T12:33:23.394Z,47.24
2023-05-03T12:34:33.980Z,45.70
2023-05-03T12:35:23.659Z,44.92
2023-05-03T12:36:25.841Z,45.73
2023-05-03T12:37:22.673Z,46.03
2023-05-03T12:38:23.996Z,46.41
2023-05-03T12:39:22.480Z,45.20
2023-05-03T12:40:33.676Z,44.90
2023-05-03T12:41:52.248Z,45.70
2023-05-03T12:42:23.230Z,44.90
2023-05-03T12:43:22.310Z,43.48
2023-05-03T12:44:23.683Z,44.29
2023-05-03T12:45:22.572Z,43.08
2023-05-03T12:46:34.142Z,44.79
2023-05-03T12:47:28.539Z,43.97
2023-05-03T12:48:23.190Z,43.26
2023-05-03T12:49:23.632Z,42.15
2023-05-03T12:50:24.759Z,41.55
2023-05-03T12:51:26.033Z,41.45
2023-05-03T12:52:37.125Z,43.57
2023-05-03T12:53:25.810Z,43.77
2023-05-03T12:54:24.283Z,44.57
2023-05-03T12:55:25.373Z,45.07
2023-05-03T12:56:24.987Z,44.87
2023-05-03T12:57:23.693Z,44.15